Smith Valley, Nevada Weather observations

Data are for 10 minute period ending at time listed.
 Day   Time   Solar   Ave.   Ave.  Ave.  Vector  Max.   Baro.   Total    
  of    of     Rad.   Air    Rel.  Wind   Wind   Wind  Press.  Precip.   
Year   Day            Temp.  Hum.  Speed  Dir.   Gust                    
2026   (PST)  Kw/m2    F      %     mph   deg.    mph    mb.     in.     
-------------------------------------------------------------------------
 129    0:10   0.00   48.7    61    2.8   235     5.5   855.3    0.00 
 129    0:20   0.00   46.6    67    0.6   254     3.5   855.3    0.00 
 129    0:30   0.00   46.9    64    0.5   228     1.4   855.3    0.00 
 129    0:40   0.00   46.1    65    0.1   195     0.7   855.2    0.00 
 129    0:50   0.00   45.8    68    2.7    55     3.8   855.3    0.00 
 129    1:00   0.00   44.5    73    1.8    62     3.2   855.4    0.00 
 129    1:10   0.00   45.9    67    1.2   171     3.9   855.3    0.00 
 129    1:20   0.00   44.3    72    3.3   263     5.1   855.5    0.00 
 129    1:30   0.00   44.0    73    2.4   295     3.9   855.4    0.00 
 129    1:40   0.00   45.8    67    1.3   296     3.7   855.4    0.00 
 129    1:50   0.00   46.7    64    2.2   280     4.0   855.4    0.00 
 129    2:00   0.00   46.8    63    0.5   301     2.1   855.5    0.00 
 129    2:10   0.00   47.5    61    1.5    60     2.1   855.6    0.00 
 129    2:20   0.00   46.7    66    1.8    89     3.4   855.6    0.00 
 129    2:30   0.00   44.9    71    2.2   163     4.8   855.6    0.00 
 129    2:40   0.00   44.9    72    2.5   170     4.2   855.7    0.00 
 129    2:50   0.00   42.8    80    3.1   164     3.7   855.8    0.00 
 129    3:00   0.00   43.2    76    2.8   131     5.6   855.7    0.00 
 129    3:10   0.00   44.7    72    4.3   120     5.3   855.7    0.00 
 129    3:20   0.00   44.5    74    3.7   165     4.8   855.8    0.00 
 129    3:30   0.00   44.4    75    3.5   176     5.5   855.9    0.00 
 129    3:40   0.00   43.7    77    1.2   145     2.6   855.9    0.00 
 129    3:50   0.00   42.3    81    1.2   171     2.5   856.0    0.00 
 129    4:00   0.00   41.7    82    1.2    89     2.7   856.0    0.00 
 129    4:10   0.00   41.7    81    0.9   128     2.1   856.1    0.00 
 129    4:20   0.00   41.7    81    2.1   102     4.3   856.1    0.00 
 129    4:30   0.00   42.5    77    3.7   112     5.5   856.2    0.00 
 129    4:40   0.00   42.7    75    2.0   101     2.9   856.3    0.00 
 129    4:50   0.00   42.3    75    2.1   123     2.8   856.3    0.00 
 129    5:00   0.01   40.9    80    2.2   216     3.5   856.4    0.00 
 129    5:10   0.04   40.5    80    1.1   268     3.0   856.5    0.00 
 129    5:20   0.07   41.4    80    0.1   250     1.1   856.6    0.00 
 129    5:30   0.10   43.0    75    0.8   103     1.9   856.6    0.00 
 129    5:40   0.13   44.9    74    2.6    66     3.8   856.7    0.00 
 129    5:50   0.16   45.6    76    1.4   116     3.0   856.9    0.00 
 129    6:00   0.19   47.6    72    1.2   267     2.8   856.9    0.00 
 129    6:10   0.22   48.7    70    2.7   302     4.1   857.1    0.00 
 129    6:20   0.26   49.7    65    2.7   298     4.4   857.1    0.00 
 129    6:30   0.29   50.8    62    1.6   315     3.2   857.0    0.00 
 129    6:40   0.33   52.7    58    0.4   333     1.8   856.9    0.00 
 129    6:50   0.37   54.5    55    0.8    21     2.1   856.9    0.00 
 129    7:00   0.40   55.7    54    1.9    48     3.1   856.9    0.00 
 129    7:10   0.44   56.8    54    1.6    53     2.7   856.9    0.00 
 129    7:20   0.48   57.9    51    1.7    57     3.1   856.9    0.00 
 129    7:30   0.51   59.8    50    1.1   357     3.1   856.8    0.00 
 129    7:40   0.55   61.1    44    1.0    22     3.7   856.8    0.00 
 129    7:50   0.59   63.0    40    1.2    32     3.4   856.7    0.00 
 129    8:00   0.62   63.6    43    1.8   352     5.3   856.7    0.00 
 129    8:10   0.66   63.4    45    2.4   326     4.9   856.6    0.00 
 129    8:20   0.69   64.9    39    1.2   347     4.1   856.6    0.00 
 129    8:30   0.73   65.4    38    3.6   324     6.7   856.6    0.00 
 129    8:40   0.76   65.5    33    4.5   351     7.5   856.7    0.00 
 129    8:50   0.80   66.7    29    5.2     6     8.2   856.7    0.00 
 129    9:00   0.83   67.8    25    5.4    20    10.3   856.7    0.00 
 129    9:10   0.86   68.4    24    4.4    10    10.6   856.7    0.00 
 129    9:20   0.89   68.6    22    4.1   354     7.2   856.7    0.00 
 129    9:30   0.92   68.9    24    5.1   354     9.6   856.8    0.00 
 129    9:40   0.94   69.2    23    4.6   337     8.8   856.8    0.00 
 129    9:50   0.97   69.5    22    4.1   339     9.4   856.8    0.00 
 129   10:00   0.99   69.7    21    5.0   355    10.8   856.8    0.00 
 129   10:10   1.01   69.7    22    4.3   318    10.0   856.7    0.00 
 129   10:20   1.03   69.9    24    6.3   315    10.7   856.8    0.00 
 129   10:30   1.05   70.1    23    3.5   311     9.9   856.7    0.00 
 129   10:40   1.07   71.1    23    6.3   327    12.3   856.6    0.00 
 129   10:50   1.09   71.2    22    6.6   322    11.9   856.5    0.00 
 129   11:00   1.10   71.9    21    6.5   326    11.8   856.5    0.00 
 129   11:10   1.11   72.5    19    6.1   348    11.7   856.4    0.00 
 129   11:20   1.13   72.9    22    3.9   307     9.4   856.3    0.00 
 129   11:30   1.14   73.2    19    4.2   347     9.4   856.2    0.00 
 129   11:40   1.14   73.6    20    4.8   313    11.5   856.0    0.00 
 129   11:50   1.15   73.8    19    6.1   334    10.7   856.0    0.00 
 129   12:00   1.15   74.2    18    5.5   352     8.8   856.0    0.00 
 129   12:10   1.15   75.1    18    3.0   339     9.6   855.8    0.00 
 129   12:20   1.15   75.3    17    6.4   348    12.3   855.7    0.00 
 129   12:30   1.14   75.4    18    3.1   273     9.2   855.5    0.00 
 129   12:40   1.14   76.2    18    3.7   340     9.1   855.5    0.00 
 129   12:50   1.13   77.1    15    5.6    44     8.7   855.5    0.00 
 129   13:00   1.12   77.8    15    3.2    71     8.2   855.4    0.00 
 129   13:10   1.10   78.0    14    6.3    35    12.3   855.4    0.00 
 129   13:20   1.09   77.3    15    7.0    52    12.5   855.3    0.00 
 129   13:30   1.07   78.2    14    6.3    63    13.3   855.2    0.00 
 129   13:40   1.06   78.4    15    5.2     9     9.4   855.0    0.00 
 129   13:50   1.03   77.9    16    5.2   359    12.1   854.9    0.00 
 129   14:00   1.01   78.6    13    4.6    23     8.6   854.8    0.00 
 129   14:10   0.99   78.8    14    5.4     3    10.7   854.7    0.00 
 129   14:20   0.96   79.5    13    7.2    21    11.2   854.6    0.00 
 129   14:30   0.94   79.2    13    4.9    26    16.7   854.5    0.00 
 129   14:40   0.91   78.9    16    7.4   317    12.7   854.4    0.00 
 129   14:50   0.88   77.6    17    3.9   284     8.3   854.3    0.00 
 129   15:00   0.85   79.2    14    5.9   350    10.2   854.2    0.00 
 129   15:10   0.82   78.6    16    4.2   301    10.1   854.1    0.00 
 129   15:20   0.78   78.7    14    5.0   354     8.7   854.1    0.00 
 129   15:30   0.75   79.9    12    4.7    14    11.1   854.0    0.00 
 129   15:40   0.72   79.0    13    4.3   324     9.2   853.9    0.00 
 129   15:50   0.67   78.5    14    5.5   320    10.3   853.9    0.00 
 129   16:00   0.65   79.6    12    2.7    50    13.4   853.8    0.00 
 129   16:10   0.61   80.2    11    3.6    58     8.6   853.7    0.00 
 129   16:20   0.57   80.2    11    5.3    33    10.0   853.7    0.00 
 129   16:30   0.53   80.3    11    6.8    18    13.2   853.7    0.00 
 129   16:40   0.49   80.1    11    7.3    21    11.3   853.6    0.00 
 129   16:50   0.45   80.2    10    6.4    12    10.1   853.6    0.00 
 129   17:00   0.41   79.8    11    5.2    18     8.8   853.6    0.00 
 129   17:10   0.37   79.8    10    6.0     0    10.6   853.6    0.00 
 129   17:20   0.34   79.1    11    6.2   340     9.4   853.6    0.00 
 129   17:30   0.30   79.0    10    5.8   356    10.4   853.6    0.00 
 129   17:40   0.27   79.0    10    4.2   350     6.2   853.6    0.00 
 129   17:50   0.22   78.9    11    4.6    10     7.4   853.6    0.00 
 129   18:00   0.18   78.4    12    5.7     6     8.1   853.5    0.00 
 129   18:10   0.15   77.8    12    4.9    16     8.0   853.5    0.00 
 129   18:20   0.11   76.8    14    5.7    25     9.1   853.5    0.00 
 129   18:30   0.03   75.0    14    4.0    27     6.3   853.5    0.00 
 129   18:40   0.02   73.2    16    3.0    26     4.7   853.5    0.00 
 129   18:50   0.01   71.1    18    3.5   296     5.2   853.5    0.00 
 129   19:00   0.01   70.1    18    2.2   304     4.7   853.4    0.00 
 129   19:10   0.00   69.0    20    2.8   293     5.7   853.5    0.00 
 129   19:20   0.00   65.6    24    4.9   282     5.7   853.5    0.00 
 129   19:30   0.00   63.2    25    3.9   279     5.0   853.5    0.00 
 129   19:40   0.00   62.5    26    3.7   278     5.4   853.7    0.00 
 129   19:50   0.00   61.2    29    3.0   276     4.9   853.8    0.00 
 129   20:00   0.00   60.6    30    3.3   273     4.6   853.9    0.00 
 129   20:10   0.00   59.5    31    4.7   268     5.7   854.0    0.00 
 129   20:20   0.00   59.7    29    4.5   269     5.7   854.2    0.00 
 129   20:30   0.00   60.3    28    3.8   268     4.8   854.3    0.00 
 129   20:40   0.00   60.8    26    3.8   284     5.0   854.4    0.00 
 129   20:50   0.00   61.9    25    4.0   281     5.7   854.5    0.00 
 129   21:00   0.00   59.7    29    1.1   308     3.2   854.6    0.00 
 129   21:10   0.00   60.4    26    3.1   295     4.3   854.6    0.00 
 129   21:20   0.00   59.8    28    3.3   270     4.3   854.6    0.00 
 129   21:30   0.00   58.5    30    3.6   274     4.6   854.6    0.00 
 129   21:40   0.00   58.6    29    4.1   267     5.0   854.6    0.00 
 129   21:50   0.00   58.4    30    3.7   244     5.5   854.6    0.00 
 129   22:00   0.00   57.6    34    4.2   182     6.3   854.6    0.00 
 129   22:10   0.00   53.3    49    2.2   155     3.9   854.7    0.00 
 129   22:20   0.00   51.1    53    2.3   140     3.9   854.8    0.00 
 129   22:30   0.00   51.3    51    1.9   142     2.6   854.8    0.00 
 129   22:40   0.00   51.5    48    2.1   131     3.2   854.9    0.00 
 129   22:50   0.00   49.9    52    3.4   142     5.0   855.0    0.00 
 129   23:00   0.00   49.1    54    3.8   138     5.3   855.0    0.00 
 129   23:10   0.00   48.5    55    4.1   153     5.3   855.1    0.00 
 129   23:20   0.00   51.9    46    3.7   179     6.3   855.1    0.00 
 129   23:30   0.00   51.1    51    2.4   208     3.9   855.1    0.00 
 129   23:40   0.00   49.6    54    1.9   114     3.2   855.1    0.00 
 129   23:50   0.00   47.5    57    2.1    84     3.9   855.1    0.00 
 130    0:00   0.00   46.8    57    1.3   106     3.7   855.1    0.00 

Return to Smith Valley graphs page.


Western Regional Climate Center,wrcc@dri.edu